createdAt,value
2019-05-11T00:01:13.976Z,7.58
2019-05-11T00:04:19.143Z,7.56
2019-05-11T00:07:24.526Z,7.54
2019-05-11T00:10:29.710Z,7.45
2019-05-11T00:13:35.029Z,7.46
2019-05-11T00:16:40.174Z,7.44
2019-05-11T00:19:45.469Z,7.42
2019-05-11T00:22:50.619Z,7.52
2019-05-11T00:25:55.801Z,7.56
2019-05-11T00:29:01.010Z,7.57
2019-05-11T00:32:07.268Z,7.47
2019-05-11T00:35:14.080Z,7.43
2019-05-11T00:38:21.994Z,7.38
2019-05-11T00:41:27.214Z,7.31
2019-05-11T00:44:33.419Z,7.34
2019-05-11T00:47:38.621Z,7.33
2019-05-11T00:50:43.884Z,7.35
2019-05-11T00:53:49.011Z,7.38
2019-05-11T00:56:54.168Z,7.31
2019-05-11T00:59:59.310Z,7.35
2019-05-11T01:03:04.467Z,7.32
2019-05-11T01:06:09.685Z,7.29
2019-05-11T01:09:14.942Z,7.23
2019-05-11T01:12:20.083Z,7.17
2019-05-11T01:15:25.293Z,7.17
2019-05-11T01:18:30.439Z,7.16
2019-05-11T01:21:35.719Z,7.15
2019-05-11T01:24:40.900Z,7.17
2019-05-11T01:27:46.066Z,7.16
2019-05-11T01:30:51.224Z,7.19
2019-05-11T01:33:56.380Z,7.23
2019-05-11T01:37:01.550Z,7.27
2019-05-11T01:40:07.626Z,7.25
2019-05-11T01:43:13.991Z,7.18
2019-05-11T01:46:19.111Z,7.19
2019-05-11T01:49:25.605Z,7.20
2019-05-11T01:52:30.800Z,7.18
2019-05-11T01:55:36.058Z,7.13
2019-05-11T01:58:41.246Z,7.08
2019-05-11T02:01:46.410Z,7.11
2019-05-11T02:05:10.559Z,7.12
2019-05-11T02:08:16.764Z,7.15
2019-05-11T02:11:22.080Z,7.16
2019-05-11T02:14:27.344Z,7.18
2019-05-11T02:17:32.498Z,7.18
2019-05-11T02:20:37.635Z,7.24
2019-05-11T02:23:42.773Z,7.28
2019-05-11T02:26:47.974Z,7.42
2019-05-11T02:29:53.154Z,7.44
2019-05-11T02:32:58.331Z,7.40
2019-05-11T02:36:03.512Z,7.42
2019-05-11T02:39:08.791Z,7.43
2019-05-11T02:42:14.001Z,7.46
2019-05-11T02:45:52.248Z,7.40
2019-05-11T02:48:57.395Z,7.38
2019-05-11T02:52:02.791Z,7.39
2019-05-11T02:55:09.517Z,7.40
2019-05-11T02:58:14.805Z,7.33
2019-05-11T03:01:19.911Z,7.33
2019-05-11T03:04:25.082Z,7.32
2019-05-11T03:07:30.239Z,7.28
2019-05-11T03:10:35.465Z,7.27
2019-05-11T03:13:40.629Z,7.25
2019-05-11T03:16:47.516Z,7.28
2019-05-11T03:19:52.669Z,7.20
2019-05-11T03:22:57.900Z,7.15
2019-05-11T03:26:03.261Z,7.17
2019-05-11T03:29:12.979Z,7.13
2019-05-11T03:32:18.229Z,7.10
2019-05-11T03:35:23.610Z,7.05
2019-05-11T03:38:28.855Z,6.99
2019-05-11T03:41:33.949Z,6.96
2019-05-11T03:44:39.141Z,6.97
2019-05-11T03:47:44.337Z,6.97
2019-05-11T03:50:49.562Z,7.02
2019-05-11T03:53:54.802Z,7.18
2019-05-11T03:57:00.015Z,7.22
2019-05-11T04:00:05.734Z,7.20
2019-05-11T04:03:11.010Z,7.16
2019-05-11T04:06:16.230Z,7.22
2019-05-11T04:09:21.620Z,7.19
2019-05-11T04:12:34.540Z,7.25
2019-05-11T04:15:36.951Z,7.29
2019-05-11T04:18:42.201Z,7.28
2019-05-11T04:21:49.875Z,7.32
2019-05-11T04:24:55.058Z,7.32
2019-05-11T04:28:00.266Z,7.40
2019-05-11T04:31:05.391Z,7.53
2019-05-11T04:34:11.443Z,7.64
2019-05-11T04:37:16.641Z,7.62
2019-05-11T04:40:21.887Z,7.59
2019-05-11T04:43:27.358Z,7.47
2019-05-11T04:46:32.577Z,7.55
2019-05-11T04:49:37.749Z,7.59
2019-05-11T04:52:42.967Z,7.59
2019-05-11T04:55:48.213Z,7.58
2019-05-11T04:58:55.106Z,7.68
2019-05-11T05:02:00.300Z,7.82
2019-05-11T05:05:06.152Z,7.89
2019-05-11T05:08:11.275Z,7.90
2019-05-11T05:11:16.411Z,8.00
2019-05-11T05:14:21.696Z,7.98
2019-05-11T05:17:26.982Z,8.05
2019-05-11T05:20:32.152Z,8.11
2019-05-11T05:23:37.384Z,8.35
2019-05-11T05:26:45.070Z,8.74
2019-05-11T05:29:50.196Z,8.49
2019-05-11T05:32:55.399Z,8.61
2019-05-11T05:36:00.651Z,8.78
2019-05-11T05:39:09.576Z,8.55
2019-05-11T05:42:15.771Z,8.41
2019-05-11T05:45:20.969Z,8.65
2019-05-11T05:48:26.130Z,8.81
2019-05-11T05:51:31.270Z,8.95
2019-05-11T05:54:36.493Z,9.02
2019-05-11T05:57:41.654Z,9.34
2019-05-11T06:00:46.970Z,9.20
2019-05-11T06:03:53.754Z,9.40
2019-05-11T06:07:00.525Z,9.49
2019-05-11T06:10:06.072Z,9.71
2019-05-11T06:13:12.651Z,10.05
2019-05-11T06:16:17.850Z,10.38
2019-05-11T06:19:23.049Z,10.49
2019-05-11T06:22:28.527Z,10.23
2019-05-11T06:25:37.145Z,10.50
2019-05-11T06:28:42.317Z,11.05
2019-05-11T06:31:47.539Z,11.00
2019-05-11T06:34:52.745Z,11.53
2019-05-11T06:37:57.919Z,11.94
2019-05-11T06:41:03.111Z,12.12
2019-05-11T06:44:08.285Z,12.92
2019-05-11T06:47:13.451Z,13.03
2019-05-11T06:50:19.095Z,11.73
2019-05-11T06:53:27.825Z,11.97
2019-05-11T06:56:31.436Z,11.78
2019-05-11T06:59:38.912Z,11.39
2019-05-11T07:02:44.163Z,11.26
2019-05-11T07:05:49.460Z,11.52
2019-05-11T07:08:54.982Z,10.96
2019-05-11T07:12:00.188Z,10.95
2019-05-11T07:15:05.726Z,11.22
2019-05-11T07:18:10.981Z,11.45
2019-05-11T07:21:17.232Z,11.37
2019-05-11T07:24:31.811Z,11.40
2019-05-11T07:27:37.062Z,11.04
2019-05-11T07:30:42.315Z,10.75
2019-05-11T07:33:48.991Z,10.99
2019-05-11T07:36:54.559Z,10.80
2019-05-11T07:40:04.191Z,10.79
2019-05-11T07:43:09.968Z,10.68
2019-05-11T07:46:17.970Z,10.69
2019-05-11T07:49:23.533Z,10.71
2019-05-11T07:52:28.892Z,10.58
2019-05-11T07:55:35.095Z,10.56
2019-05-11T07:58:40.269Z,11.07
2019-05-11T08:01:47.742Z,10.97
2019-05-11T08:04:52.295Z,11.22
2019-05-11T08:07:59.518Z,11.12
2019-05-11T08:11:04.419Z,11.08
2019-05-11T08:14:09.784Z,11.13
2019-05-11T08:17:14.975Z,11.03
2019-05-11T08:20:20.115Z,11.18
2019-05-11T08:23:25.341Z,11.46
2019-05-11T08:26:30.571Z,11.08
2019-05-11T08:29:38.216Z,10.79
2019-05-11T08:32:42.925Z,11.14
2019-05-11T08:35:49.352Z,10.96
2019-05-11T08:38:58.244Z,11.25
2019-05-11T08:42:03.498Z,11.38
2019-05-11T08:45:17.158Z,10.98
2019-05-11T08:48:18.726Z,10.94
2019-05-11T08:51:25.145Z,11.13
2019-05-11T08:54:30.380Z,10.97
2019-05-11T08:57:35.591Z,11.13
2019-05-11T09:00:40.850Z,10.94
2019-05-11T09:03:47.786Z,10.74
2019-05-11T09:06:52.881Z,10.77
2019-05-11T09:09:58.699Z,10.75
2019-05-11T09:13:03.970Z,10.33
2019-05-11T09:16:09.134Z,10.39
2019-05-11T09:19:14.320Z,10.37
2019-05-11T09:22:19.571Z,10.49
2019-05-11T09:25:24.735Z,10.49
2019-05-11T09:28:29.905Z,10.23
2019-05-11T09:31:35.092Z,10.21
2019-05-11T09:34:40.243Z,10.28
2019-05-11T09:37:45.606Z,10.00
2019-05-11T09:40:53.182Z,9.88
2019-05-11T09:43:58.643Z,10.01
2019-05-11T09:47:04.049Z,10.11
2019-05-11T09:50:09.263Z,10.57
2019-05-11T09:53:14.466Z,10.77
2019-05-11T09:56:19.699Z,10.87
2019-05-11T09:59:24.918Z,10.69
2019-05-11T10:02:30.121Z,10.75
2019-05-11T10:05:35.377Z,10.96
2019-05-11T10:08:40.696Z,10.96
2019-05-11T10:11:48.017Z,11.16
2019-05-11T10:14:52.767Z,10.83
2019-05-11T10:17:58.903Z,11.32
2019-05-11T10:21:04.234Z,11.48
2019-05-11T10:24:09.527Z,10.85
2019-05-11T10:27:14.637Z,10.98
2019-05-11T10:30:20.605Z,11.23
2019-05-11T10:33:27.977Z,11.13
2019-05-11T10:36:32.782Z,10.94
2019-05-11T10:39:39.585Z,10.90
2019-05-11T10:42:44.675Z,11.18
2019-05-11T10:45:49.926Z,11.23
2019-05-11T10:48:55.116Z,11.30
2019-05-11T10:52:00.347Z,11.31
2019-05-11T10:55:08.502Z,11.38
2019-05-11T10:58:12.872Z,11.15
2019-05-11T11:01:18.365Z,11.23
2019-05-11T11:04:23.668Z,11.20
2019-05-11T11:07:29.093Z,11.56
2019-05-11T11:10:34.297Z,11.47
2019-05-11T11:13:39.477Z,11.31
2019-05-11T11:16:44.730Z,11.84
2019-05-11T11:19:51.007Z,11.98
2019-05-11T11:22:58.404Z,12.31
2019-05-11T11:26:03.166Z,12.35
2019-05-11T11:29:11.705Z,12.23
2019-05-11T11:32:18.577Z,12.56
2019-05-11T11:35:23.677Z,12.50
2019-05-11T11:38:29.007Z,12.04
2019-05-11T11:41:34.268Z,11.98
2019-05-11T11:44:39.480Z,12.18
2019-05-11T11:47:44.683Z,12.14
2019-05-11T11:50:49.945Z,12.19
2019-05-11T11:53:55.167Z,12.15
2019-05-11T11:57:21.710Z,11.84
2019-05-11T12:00:28.807Z,11.79
2019-05-11T12:03:33.796Z,11.54
2019-05-11T12:06:38.958Z,11.44
2019-05-11T12:09:44.128Z,11.46
2019-05-11T12:12:49.305Z,11.11
2019-05-11T12:15:54.452Z,10.90
2019-05-11T12:18:59.543Z,11.13
2019-05-11T12:22:04.793Z,11.03
2019-05-11T12:25:12.175Z,11.08
2019-05-11T12:28:19.028Z,11.13
2019-05-11T12:31:24.301Z,11.01
2019-05-11T12:34:29.471Z,11.27
2019-05-11T12:37:34.599Z,11.54
2019-05-11T12:40:39.787Z,11.54
2019-05-11T12:43:44.968Z,12.07
2019-05-11T12:46:50.243Z,12.55
2019-05-11T12:49:55.371Z,12.62
2019-05-11T12:53:00.622Z,12.91
2019-05-11T12:56:07.977Z,12.95
2019-05-11T12:59:12.731Z,12.93
2019-05-11T13:02:18.553Z,13.22
2019-05-11T13:05:23.823Z,13.37
2019-05-11T13:08:29.059Z,13.04
2019-05-11T13:11:35.222Z,13.33
2019-05-11T13:14:40.380Z,13.33
2019-05-11T13:17:45.628Z,13.50
2019-05-11T13:20:50.755Z,13.44
2019-05-11T13:23:57.714Z,13.79
2019-05-11T13:27:03.050Z,13.38
2019-05-11T13:30:08.527Z,13.97
2019-05-11T13:33:13.767Z,14.08
2019-05-11T13:36:18.958Z,14.06
2019-05-11T13:39:24.307Z,14.45
2019-05-11T13:42:29.543Z,14.44
2019-05-11T13:45:34.712Z,14.49
2019-05-11T13:48:39.853Z,14.68
2019-05-11T13:51:45.033Z,14.17
2019-05-11T13:54:50.298Z,14.62
2019-05-11T13:57:57.692Z,14.45
2019-05-11T14:01:02.431Z,14.54
2019-05-11T14:04:08.483Z,14.25
2019-05-11T14:07:14.366Z,14.32
2019-05-11T14:10:19.781Z,14.26
2019-05-11T14:13:25.046Z,13.79
2019-05-11T14:16:30.248Z,14.04
2019-05-11T14:19:38.265Z,13.78
2019-05-11T14:22:42.570Z,13.90
2019-05-11T14:25:48.622Z,14.27
2019-05-11T14:28:55.203Z,14.30
2019-05-11T14:32:00.721Z,14.11
2019-05-11T14:35:11.909Z,13.80
2019-05-11T14:38:13.641Z,13.63
2019-05-11T14:41:18.883Z,13.47
2019-05-11T14:44:25.132Z,13.30
2019-05-11T14:47:30.382Z,13.34
2019-05-11T14:50:35.606Z,13.25
2019-05-11T14:53:40.972Z,13.30
2019-05-11T14:56:48.152Z,13.25
2019-05-11T14:59:53.279Z,13.33
2019-05-11T15:02:58.643Z,13.34
2019-05-11T15:06:03.881Z,13.63
2019-05-11T15:09:09.083Z,13.99
2019-05-11T15:12:14.478Z,14.00
2019-05-11T15:15:19.756Z,14.03
2019-05-11T15:18:37.972Z,14.06
2019-05-11T15:21:31.899Z,14.10
2019-05-11T15:24:39.727Z,14.40
2019-05-11T15:27:44.924Z,13.73
2019-05-11T15:30:51.014Z,13.58
2019-05-11T15:33:57.718Z,13.23
2019-05-11T15:37:03.102Z,13.21
2019-05-11T15:40:27.909Z,13.23
2019-05-11T15:43:33.483Z,13.16
2019-05-11T15:46:39.304Z,13.55
2019-05-11T15:49:44.842Z,13.31
2019-05-11T15:52:49.993Z,13.62
2019-05-11T15:55:55.157Z,13.47
2019-05-11T15:59:00.313Z,13.52
2019-05-11T16:02:05.502Z,13.31
2019-05-11T16:05:11.008Z,13.36
2019-05-11T16:08:18.628Z,13.69
2019-05-11T16:11:23.197Z,13.71
2019-05-11T16:14:28.453Z,13.85
2019-05-11T16:17:34.858Z,13.50
2019-05-11T16:20:41.203Z,13.44
2019-05-11T16:23:47.964Z,13.44
2019-05-11T16:26:53.299Z,13.11
2019-05-11T16:29:58.507Z,13.22
2019-05-11T16:33:03.726Z,13.01
2019-05-11T16:36:09.240Z,12.93
2019-05-11T16:39:14.708Z,13.18
2019-05-11T16:42:19.890Z,13.07
2019-05-11T16:45:25.064Z,13.09
2019-05-11T16:48:30.250Z,13.08
2019-05-11T16:51:35.472Z,13.29
2019-05-11T16:54:40.632Z,13.39
2019-05-11T16:57:48.358Z,13.24
2019-05-11T17:00:53.112Z,13.32
2019-05-11T17:03:58.308Z,13.29
2019-05-11T17:07:08.258Z,13.49
2019-05-11T17:10:10.493Z,13.17
2019-05-11T17:13:18.149Z,12.90
2019-05-11T17:16:23.395Z,12.70
2019-05-11T17:19:42.513Z,12.61
2019-05-11T17:22:35.455Z,12.31
2019-05-11T17:25:40.632Z,12.45
2019-05-11T17:28:45.847Z,12.37
2019-05-11T17:31:51.009Z,12.33
2019-05-11T17:34:58.099Z,12.25
2019-05-11T17:38:03.430Z,12.10
2019-05-11T17:41:08.706Z,12.05
2019-05-11T17:44:13.849Z,11.86
2019-05-11T17:47:19.169Z,11.74
2019-05-11T17:50:24.675Z,11.62
2019-05-11T17:53:29.992Z,11.44
2019-05-11T17:56:35.614Z,11.46
2019-05-11T17:59:45.119Z,11.30
2019-05-11T18:02:50.440Z,11.12
2019-05-11T18:05:55.663Z,11.09
2019-05-11T18:09:00.859Z,11.27
2019-05-11T18:12:09.737Z,11.11
2019-05-11T18:15:14.660Z,10.99
2019-05-11T18:18:19.958Z,10.89
2019-05-11T18:21:25.249Z,10.75
2019-05-11T18:24:30.462Z,10.60
2019-05-11T18:27:35.593Z,10.50
2019-05-11T18:30:40.790Z,10.34
2019-05-11T18:33:45.948Z,10.15
2019-05-11T18:36:51.185Z,10.08
2019-05-11T18:39:58.442Z,9.98
2019-05-11T18:43:03.230Z,9.76
2019-05-11T18:46:11.528Z,9.67
2019-05-11T18:49:15.287Z,9.69
2019-05-11T18:52:23.515Z,9.59
2019-05-11T18:55:28.713Z,9.39
2019-05-11T18:58:34.817Z,9.15
2019-05-11T19:01:40.046Z,9.03
2019-05-11T19:04:45.275Z,8.94
2019-05-11T19:07:50.557Z,8.85
2019-05-11T19:10:57.806Z,8.77
2019-05-11T19:14:02.575Z,8.76
2019-05-11T19:17:07.884Z,8.71
2019-05-11T19:20:13.185Z,8.60
2019-05-11T19:23:19.180Z,8.47
2019-05-11T19:26:24.620Z,8.41
2019-05-11T19:29:29.847Z,8.35
2019-05-11T19:32:35.045Z,8.21
2019-05-11T19:35:40.352Z,8.26
2019-05-11T19:38:47.697Z,8.08
2019-05-11T19:41:52.349Z,8.09
2019-05-11T19:45:01.112Z,7.81
2019-05-11T19:48:08.422Z,7.76
2019-05-11T19:51:13.237Z,7.61
2019-05-11T19:54:18.777Z,7.37
2019-05-11T19:57:24.117Z,7.28
2019-05-11T20:00:29.419Z,7.26
2019-05-11T20:03:34.739Z,7.24
2019-05-11T20:06:40.093Z,7.03
2019-05-11T20:09:45.258Z,6.91
2019-05-11T20:12:50.444Z,6.91
2019-05-11T20:15:57.686Z,6.93
2019-05-11T20:19:02.638Z,6.81
2019-05-11T20:22:07.785Z,6.78
2019-05-11T20:25:14.203Z,6.65
2019-05-11T20:28:20.170Z,6.56
2019-05-11T20:31:27.586Z,6.50
2019-05-11T20:34:32.649Z,6.46
2019-05-11T20:37:38.466Z,6.37
2019-05-11T20:40:43.807Z,6.04
2019-05-11T20:43:48.989Z,6.10
2019-05-11T20:46:54.263Z,6.14
2019-05-11T20:49:59.450Z,6.12
2019-05-11T20:53:04.635Z,6.17
2019-05-11T20:56:09.858Z,6.10
2019-05-11T20:59:15.038Z,6.11
2019-05-11T21:02:20.295Z,5.97
2019-05-11T21:05:25.628Z,6.02
2019-05-11T21:08:30.823Z,5.99
2019-05-11T21:11:36.063Z,5.91
2019-05-11T21:14:41.369Z,6.00
2019-05-11T21:17:48.205Z,6.04
2019-05-11T21:20:53.544Z,5.84
2019-05-11T21:23:58.708Z,5.75
2019-05-11T21:27:04.008Z,5.67
2019-05-11T21:30:09.918Z,5.60
2019-05-11T21:33:15.300Z,5.62
2019-05-11T21:36:22.199Z,5.69
2019-05-11T21:39:28.716Z,5.76
2019-05-11T21:42:34.483Z,5.72
2019-05-11T21:45:40.741Z,5.74
2019-05-11T21:48:47.839Z,5.68
2019-05-11T21:52:04.108Z,5.66
2019-05-11T21:55:00.145Z,5.59
2019-05-11T21:58:05.506Z,5.65
2019-05-11T22:01:10.728Z,5.64
2019-05-11T22:04:15.948Z,5.56
2019-05-11T22:07:23.209Z,5.49
2019-05-11T22:10:28.425Z,5.40
2019-05-11T22:13:33.745Z,5.39
2019-05-11T22:16:39.042Z,5.33
2019-05-11T22:19:44.224Z,5.34
2019-05-11T22:22:49.420Z,5.27
2019-05-11T22:25:54.548Z,5.20
2019-05-11T22:28:59.645Z,5.19
2019-05-11T22:32:04.794Z,5.18
2019-05-11T22:35:13.208Z,5.10
2019-05-11T22:38:16.989Z,5.08
2019-05-11T22:41:24.855Z,4.95
2019-05-11T22:44:30.038Z,4.91
2019-05-11T22:47:35.164Z,4.94
2019-05-11T22:50:43.450Z,4.90
2019-05-11T22:53:48.051Z,4.81
2019-05-11T22:56:53.970Z,4.81
2019-05-11T23:00:01.666Z,4.82
2019-05-11T23:03:10.591Z,4.76
2019-05-11T23:06:14.539Z,4.73
2019-05-11T23:09:19.690Z,4.77
2019-05-11T23:12:28.509Z,4.78
2019-05-11T23:15:33.313Z,4.75
2019-05-11T23:18:38.968Z,4.69
2019-05-11T23:21:44.151Z,4.75
2019-05-11T23:24:49.270Z,4.66
2019-05-11T23:27:54.452Z,4.66
2019-05-11T23:30:59.783Z,4.69
2019-05-11T23:34:04.914Z,4.66
2019-05-11T23:37:10.088Z,4.71
2019-05-11T23:40:18.048Z,4.68
2019-05-11T23:43:22.352Z,4.69
2019-05-11T23:46:28.439Z,4.56
2019-05-11T23:49:33.858Z,4.50
2019-05-11T23:52:39.094Z,4.59
2019-05-11T23:55:44.253Z,4.53
2019-05-11T23:58:49.444Z,4.58
